sensor_id;sensor_type;location;lat;lon;timestamp;P1;durP1;ratioP1;P2;durP2;ratioP2
50555;SDS011;36508;52.512;13.450;2023-03-01T00:02:23;18.90;;;16.57;;
50555;SDS011;36508;52.512;13.450;2023-03-01T00:04:48;19.30;;;16.43;;
50555;SDS011;36508;52.512;13.450;2023-03-01T00:07:15;18.40;;;16.47;;
50555;SDS011;36508;52.512;13.450;2023-03-01T00:09:40;20.47;;;17.03;;
50555;SDS011;36508;52.512;13.450;2023-03-01T00:12:06;20.53;;;17.33;;
50555;SDS011;36508;52.512;13.450;2023-03-01T00:14:34;21.73;;;14.77;;
50555;SDS011;36508;52.512;13.450;2023-03-01T00:17:01;20.20;;;15.53;;
50555;SDS011;36508;52.512;13.450;2023-03-01T00:19:31;16.30;;;14.57;;
50555;SDS011;36508;52.512;13.450;2023-03-01T00:22:00;17.73;;;15.93;;
50555;SDS011;36508;52.512;13.450;2023-03-01T00:24:26;25.17;;;16.67;;
50555;SDS011;36508;52.512;13.450;2023-03-01T00:26:53;17.23;;;13.87;;
50555;SDS011;36508;52.512;13.450;2023-03-01T00:29:27;21.30;;;14.60;;
50555;SDS011;36508;52.512;13.450;2023-03-01T00:31:56;27.30;;;16.50;;
50555;SDS011;36508;52.512;13.450;2023-03-01T00:34:25;18.00;;;15.70;;
50555;SDS011;36508;52.512;13.450;2023-03-01T00:36:54;17.30;;;15.50;;
50555;SDS011;36508;52.512;13.450;2023-03-01T00:39:20;15.70;;;13.90;;
50555;SDS011;36508;52.512;13.450;2023-03-01T00:41:45;22.80;;;16.00;;
50555;SDS011;36508;52.512;13.450;2023-03-01T00:44:11;17.10;;;14.10;;
50555;SDS011;36508;52.512;13.450;2023-03-01T00:46:37;17.30;;;15.57;;
50555;SDS011;36508;52.512;13.450;2023-03-01T00:49:07;17.10;;;14.33;;
50555;SDS011;36508;52.512;13.450;2023-03-01T00:51:33;23.30;;;17.90;;
50555;SDS011;36508;52.512;13.450;2023-03-01T00:53:59;16.07;;;14.40;;
50555;SDS011;36508;52.512;13.450;2023-03-01T00:56:26;16.83;;;13.10;;
50555;SDS011;36508;52.512;13.450;2023-03-01T00:58:53;16.13;;;14.20;;
50555;SDS011;36508;52.512;13.450;2023-03-01T01:01:23;16.17;;;14.50;;
50555;SDS011;36508;52.512;13.450;2023-03-01T01:03:53;15.57;;;13.97;;
50555;SDS011;36508;52.512;13.450;2023-03-01T01:06:25;15.90;;;14.20;;
50555;SDS011;36508;52.512;13.450;2023-03-01T01:08:53;16.20;;;14.23;;
50555;SDS011;36508;52.512;13.450;2023-03-01T01:11:21;15.20;;;13.10;;
50555;SDS011;36508;52.512;13.450;2023-03-01T01:13:48;14.23;;;12.67;;
50555;SDS011;36508;52.512;13.450;2023-03-01T01:16:21;15.03;;;13.47;;
50555;SDS011;36508;52.512;13.450;2023-03-01T01:18:54;14.53;;;12.87;;
50555;SDS011;36508;52.512;13.450;2023-03-01T01:21:21;14.83;;;12.50;;
50555;SDS011;36508;52.512;13.450;2023-03-01T01:23:54;12.60;;;11.30;;
50555;SDS011;36508;52.512;13.450;2023-03-01T01:26:22;13.47;;;12.00;;
50555;SDS011;36508;52.512;13.450;2023-03-01T01:28:50;15.37;;;13.77;;
50555;SDS011;36508;52.512;13.450;2023-03-01T01:31:16;14.73;;;13.33;;
50555;SDS011;36508;52.512;13.450;2023-03-01T01:33:48;15.13;;;13.53;;
50555;SDS011;36508;52.512;13.450;2023-03-01T01:36:14;17.63;;;13.83;;
50555;SDS011;36508;52.512;13.450;2023-03-01T01:38:47;15.23;;;13.03;;
50555;SDS011;36508;52.512;13.450;2023-03-01T01:41:16;15.40;;;13.03;;
50555;SDS011;36508;52.512;13.450;2023-03-01T01:47:05;15.40;;;12.20;;
50555;SDS011;36508;52.512;13.450;2023-03-01T01:52:19;17.73;;;13.07;;
50555;SDS011;36508;52.512;13.450;2023-03-01T01:55:07;16.80;;;11.90;;
50555;SDS011;36508;52.512;13.450;2023-03-01T01:57:40;12.10;;;10.83;;
50555;SDS011;36508;52.512;13.450;2023-03-01T02:00:09;15.43;;;12.80;;
50555;SDS011;36508;52.512;13.450;2023-03-01T02:02:38;15.23;;;13.43;;
50555;SDS011;36508;52.512;13.450;2023-03-01T02:05:08;12.80;;;11.17;;
50555;SDS011;36508;52.512;13.450;2023-03-01T02:07:55;15.90;;;12.40;;
50555;SDS011;36508;52.512;13.450;2023-03-01T02:10:23;15.23;;;12.60;;
50555;SDS011;36508;52.512;13.450;2023-03-01T02:12:51;14.43;;;12.80;;
50555;SDS011;36508;52.512;13.450;2023-03-01T02:15:17;16.10;;;14.60;;
50555;SDS011;36508;52.512;13.450;2023-03-01T02:17:43;14.13;;;12.80;;
50555;SDS011;36508;52.512;13.450;2023-03-01T02:22:56;14.77;;;13.20;;
50555;SDS011;36508;52.512;13.450;2023-03-01T02:25:40;16.33;;;14.63;;
50555;SDS011;36508;52.512;13.450;2023-03-01T02:28:24;13.60;;;12.10;;
50555;SDS011;36508;52.512;13.450;2023-03-01T02:31:02;15.70;;;13.23;;
50555;SDS011;36508;52.512;13.450;2023-03-01T02:33:49;17.40;;;13.87;;
50555;SDS011;36508;52.512;13.450;2023-03-01T02:36:20;17.90;;;14.60;;
50555;SDS011;36508;52.512;13.450;2023-03-01T02:38:51;14.70;;;13.20;;
50555;SDS011;36508;52.512;13.450;2023-03-01T02:41:20;13.63;;;12.20;;
50555;SDS011;36508;52.512;13.450;2023-03-01T02:43:48;13.17;;;11.87;;
50555;SDS011;36508;52.512;13.450;2023-03-01T02:46:18;12.53;;;11.33;;
50555;SDS011;36508;52.512;13.450;2023-03-01T02:48:50;15.67;;;11.60;;
50555;SDS011;36508;52.512;13.450;2023-03-01T02:56:58;14.63;;;12.93;;
50555;SDS011;36508;52.512;13.450;2023-03-01T02:59:27;19.20;;;12.70;;
50555;SDS011;36508;52.512;13.450;2023-03-01T03:01:56;14.10;;;12.80;;
50555;SDS011;36508;52.512;13.450;2023-03-01T03:04:28;18.00;;;14.30;;
50555;SDS011;36508;52.512;13.450;2023-03-01T03:07:03;16.70;;;12.33;;
50555;SDS011;36508;52.512;13.450;2023-03-01T03:09:28;13.27;;;11.97;;
50555;SDS011;36508;52.512;13.450;2023-03-01T03:11:57;17.60;;;14.80;;
50555;SDS011;36508;52.512;13.450;2023-03-01T03:14:23;18.30;;;15.10;;
50555;SDS011;36508;52.512;13.450;2023-03-01T03:16:49;15.50;;;13.87;;
50555;SDS011;36508;52.512;13.450;2023-03-01T03:19:16;15.40;;;13.80;;
50555;SDS011;36508;52.512;13.450;2023-03-01T03:21:46;15.87;;;13.37;;
50555;SDS011;36508;52.512;13.450;2023-03-01T03:24:12;17.17;;;13.37;;
50555;SDS011;36508;52.512;13.450;2023-03-01T03:26:38;21.50;;;13.13;;
50555;SDS011;36508;52.512;13.450;2023-03-01T03:29:04;17.77;;;13.53;;
50555;SDS011;36508;52.512;13.450;2023-03-01T03:31:30;16.13;;;13.27;;
50555;SDS011;36508;52.512;13.450;2023-03-01T03:34:01;17.07;;;14.27;;
50555;SDS011;36508;52.512;13.450;2023-03-01T03:36:27;16.60;;;14.43;;
50555;SDS011;36508;52.512;13.450;2023-03-01T03:38:53;17.17;;;15.40;;
50555;SDS011;36508;52.512;13.450;2023-03-01T03:41:19;20.90;;;18.80;;
50555;SDS011;36508;52.512;13.450;2023-03-01T03:43:45;19.17;;;15.67;;
50555;SDS011;36508;52.512;13.450;2023-03-01T03:46:11;16.83;;;15.07;;
50555;SDS011;36508;52.512;13.450;2023-03-01T03:48:42;25.57;;;18.17;;
50555;SDS011;36508;52.512;13.450;2023-03-01T03:51:15;19.20;;;17.20;;
50555;SDS011;36508;52.512;13.450;2023-03-01T03:53:45;21.30;;;16.93;;
50555;SDS011;36508;52.512;13.450;2023-03-01T03:56:11;19.90;;;17.57;;
50555;SDS011;36508;52.512;13.450;2023-03-01T03:58:37;19.83;;;17.53;;
50555;SDS011;36508;52.512;13.450;2023-03-01T04:01:03;24.87;;;19.53;;
50555;SDS011;36508;52.512;13.450;2023-03-01T04:03:30;28.07;;;19.60;;
50555;SDS011;36508;52.512;13.450;2023-03-01T04:05:57;20.90;;;18.70;;
50555;SDS011;36508;52.512;13.450;2023-03-01T04:08:27;24.23;;;19.47;;
50555;SDS011;36508;52.512;13.450;2023-03-01T04:10:56;23.73;;;19.23;;
50555;SDS011;36508;52.512;13.450;2023-03-01T04:13:47;21.63;;;16.90;;
50555;SDS011;36508;52.512;13.450;2023-03-01T04:16:13;20.30;;;16.90;;
50555;SDS011;36508;52.512;13.450;2023-03-01T04:18:39;22.93;;;18.63;;
50555;SDS011;36508;52.512;13.450;2023-03-01T04:21:04;26.03;;;19.07;;
50555;SDS011;36508;52.512;13.450;2023-03-01T04:23:30;18.80;;;16.80;;
50555;SDS011;36508;52.512;13.450;2023-03-01T04:26:00;27.13;;;21.13;;
50555;SDS011;36508;52.512;13.450;2023-03-01T04:28:39;29.50;;;20.90;;
50555;SDS011;36508;52.512;13.450;2023-03-01T04:31:12;26.80;;;19.83;;
50555;SDS011;36508;52.512;13.450;2023-03-01T04:33:41;20.23;;;17.13;;
50555;SDS011;36508;52.512;13.450;2023-03-01T04:36:09;22.97;;;17.60;;
50555;SDS011;36508;52.512;13.450;2023-03-01T04:38:36;28.97;;;22.17;;
50555;SDS011;36508;52.512;13.450;2023-03-01T04:41:09;27.10;;;19.87;;
50555;SDS011;36508;52.512;13.450;2023-03-01T04:43:36;30.73;;;23.90;;
50555;SDS011;36508;52.512;13.450;2023-03-01T04:46:04;32.10;;;20.10;;
50555;SDS011;36508;52.512;13.450;2023-03-01T04:48:37;24.27;;;21.00;;
50555;SDS011;36508;52.512;13.450;2023-03-01T04:51:11;26.77;;;21.37;;
50555;SDS011;36508;52.512;13.450;2023-03-01T04:53:40;29.57;;;22.83;;
50555;SDS011;36508;52.512;13.450;2023-03-01T04:56:07;30.27;;;23.43;;
50555;SDS011;36508;52.512;13.450;2023-03-01T04:58:34;28.63;;;22.00;;
50555;SDS011;36508;52.512;13.450;2023-03-01T05:01:00;23.10;;;18.47;;
50555;SDS011;36508;52.512;13.450;2023-03-01T05:03:26;26.50;;;21.57;;
50555;SDS011;36508;52.512;13.450;2023-03-01T05:05:53;31.63;;;21.80;;
50555;SDS011;36508;52.512;13.450;2023-03-01T05:08:18;46.47;;;29.17;;
50555;SDS011;36508;52.512;13.450;2023-03-01T05:10:47;43.17;;;31.80;;
50555;SDS011;36508;52.512;13.450;2023-03-01T05:13:15;41.03;;;32.03;;
50555;SDS011;36508;52.512;13.450;2023-03-01T05:15:59;35.13;;;26.60;;
50555;SDS011;36508;52.512;13.450;2023-03-01T05:18:30;26.73;;;23.30;;
50555;SDS011;36508;52.512;13.450;2023-03-01T05:21:07;30.13;;;25.20;;
50555;SDS011;36508;52.512;13.450;2023-03-01T05:23:38;32.00;;;24.93;;
50555;SDS011;36508;52.512;13.450;2023-03-01T05:26:05;27.97;;;23.53;;
50555;SDS011;36508;52.512;13.450;2023-03-01T05:28:34;27.17;;;22.67;;
50555;SDS011;36508;52.512;13.450;2023-03-01T05:31:03;31.47;;;23.47;;
50555;SDS011;36508;52.512;13.450;2023-03-01T05:33:38;35.77;;;24.00;;
50555;SDS011;36508;52.512;13.450;2023-03-01T05:36:11;27.27;;;22.63;;
50555;SDS011;36508;52.512;13.450;2023-03-01T05:38:39;28.10;;;22.37;;
50555;SDS011;36508;52.512;13.450;2023-03-01T05:41:05;27.17;;;20.47;;
50555;SDS011;36508;52.512;13.450;2023-03-01T05:43:42;20.77;;;18.57;;
50555;SDS011;36508;52.512;13.450;2023-03-01T05:46:09;26.73;;;22.93;;
50555;SDS011;36508;52.512;13.450;2023-03-01T05:48:43;23.83;;;21.27;;
50555;SDS011;36508;52.512;13.450;2023-03-01T05:51:08;24.37;;;19.03;;
50555;SDS011;36508;52.512;13.450;2023-03-01T05:53:34;22.70;;;17.73;;
50555;SDS011;36508;52.512;13.450;2023-03-01T05:56:03;20.40;;;17.80;;
50555;SDS011;36508;52.512;13.450;2023-03-01T05:58:32;24.03;;;18.80;;
50555;SDS011;36508;52.512;13.450;2023-03-01T06:01:03;22.23;;;19.93;;
50555;SDS011;36508;52.512;13.450;2023-03-01T06:03:29;26.03;;;19.00;;
50555;SDS011;36508;52.512;13.450;2023-03-01T06:05:56;23.37;;;18.40;;
50555;SDS011;36508;52.512;13.450;2023-03-01T06:08:28;23.13;;;19.47;;
50555;SDS011;36508;52.512;13.450;2023-03-01T06:10:57;28.80;;;19.83;;
50555;SDS011;36508;52.512;13.450;2023-03-01T06:13:23;21.50;;;19.30;;
50555;SDS011;36508;52.512;13.450;2023-03-01T06:15:51;27.50;;;20.63;;
50555;SDS011;36508;52.512;13.450;2023-03-01T06:18:19;26.43;;;20.57;;
50555;SDS011;36508;52.512;13.450;2023-03-01T06:20:54;37.13;;;28.13;;
50555;SDS011;36508;52.512;13.450;2023-03-01T06:23:22;29.73;;;22.13;;
50555;SDS011;36508;52.512;13.450;2023-03-01T06:25:49;29.07;;;23.67;;
50555;SDS011;36508;52.512;13.450;2023-03-01T06:28:24;30.10;;;21.17;;
50555;SDS011;36508;52.512;13.450;2023-03-01T06:30:50;22.10;;;19.70;;
50555;SDS011;36508;52.512;13.450;2023-03-01T06:33:17;29.13;;;20.23;;
50555;SDS011;36508;52.512;13.450;2023-03-01T06:35:48;28.53;;;20.73;;
50555;SDS011;36508;52.512;13.450;2023-03-01T06:38:14;26.03;;;23.43;;
50555;SDS011;36508;52.512;13.450;2023-03-01T06:40:42;32.67;;;24.30;;
50555;SDS011;36508;52.512;13.450;2023-03-01T06:43:08;26.30;;;22.77;;
50555;SDS011;36508;52.512;13.450;2023-03-01T06:45:34;24.60;;;21.87;;
50555;SDS011;36508;52.512;13.450;2023-03-01T06:48:05;25.77;;;21.67;;
50555;SDS011;36508;52.512;13.450;2023-03-01T06:50:34;28.23;;;20.77;;
50555;SDS011;36508;52.512;13.450;2023-03-01T06:53:00;27.57;;;23.90;;
50555;SDS011;36508;52.512;13.450;2023-03-01T06:55:27;26.63;;;23.80;;
50555;SDS011;36508;52.512;13.450;2023-03-01T06:57:59;31.90;;;24.00;;
50555;SDS011;36508;52.512;13.450;2023-03-01T07:00:26;27.20;;;23.60;;
50555;SDS011;36508;52.512;13.450;2023-03-01T07:02:58;29.00;;;24.30;;
50555;SDS011;36508;52.512;13.450;2023-03-01T07:05:26;30.07;;;26.63;;
50555;SDS011;36508;52.512;13.450;2023-03-01T07:07:53;26.90;;;23.23;;
50555;SDS011;36508;52.512;13.450;2023-03-01T07:10:20;27.13;;;23.40;;
50555;SDS011;36508;52.512;13.450;2023-03-01T07:12:47;31.77;;;25.37;;
50555;SDS011;36508;52.512;13.450;2023-03-01T07:15:13;28.40;;;24.63;;
50555;SDS011;36508;52.512;13.450;2023-03-01T07:17:40;31.80;;;22.83;;
50555;SDS011;36508;52.512;13.450;2023-03-01T07:20:08;27.63;;;23.87;;
50555;SDS011;36508;52.512;13.450;2023-03-01T07:22:41;29.07;;;23.37;;
50555;SDS011;36508;52.512;13.450;2023-03-01T07:25:07;27.80;;;22.83;;
50555;SDS011;36508;52.512;13.450;2023-03-01T07:27:36;25.20;;;21.97;;
50555;SDS011;36508;52.512;13.450;2023-03-01T07:30:02;29.87;;;23.40;;
50555;SDS011;36508;52.512;13.450;2023-03-01T07:32:31;27.17;;;23.03;;
50555;SDS011;36508;52.512;13.450;2023-03-01T07:34:57;27.17;;;21.40;;
50555;SDS011;36508;52.512;13.450;2023-03-01T07:37:26;31.53;;;23.90;;
50555;SDS011;36508;52.512;13.450;2023-03-01T07:39:55;28.87;;;21.80;;
50555;SDS011;36508;52.512;13.450;2023-03-01T07:42:20;30.63;;;24.83;;
50555;SDS011;36508;52.512;13.450;2023-03-01T07:44:49;27.50;;;22.47;;
50555;SDS011;36508;52.512;13.450;2023-03-01T07:47:18;27.17;;;22.27;;
50555;SDS011;36508;52.512;13.450;2023-03-01T07:49:46;28.50;;;22.40;;
50555;SDS011;36508;52.512;13.450;2023-03-01T07:52:22;17.53;;;15.77;;
50555;SDS011;36508;52.512;13.450;2023-03-01T07:55:00;19.20;;;17.10;;
50555;SDS011;36508;52.512;13.450;2023-03-01T07:57:25;19.23;;;15.27;;
50555;SDS011;36508;52.512;13.450;2023-03-01T07:59:51;14.53;;;12.70;;
50555;SDS011;36508;52.512;13.450;2023-03-01T08:02:20;16.03;;;13.30;;
50555;SDS011;36508;52.512;13.450;2023-03-01T08:04:46;15.90;;;13.70;;
50555;SDS011;36508;52.512;13.450;2023-03-01T08:07:18;20.03;;;15.93;;
50555;SDS011;36508;52.512;13.450;2023-03-01T08:09:43;19.33;;;14.47;;
50555;SDS011;36508;52.512;13.450;2023-03-01T08:12:10;15.43;;;13.67;;
50555;SDS011;36508;52.512;13.450;2023-03-01T08:14:35;16.23;;;14.63;;
50555;SDS011;36508;52.512;13.450;2023-03-01T08:17:04;16.60;;;13.00;;
50555;SDS011;36508;52.512;13.450;2023-03-01T08:19:31;17.03;;;15.30;;
50555;SDS011;36508;52.512;13.450;2023-03-01T08:21:58;15.33;;;13.70;;
50555;SDS011;36508;52.512;13.450;2023-03-01T08:24:27;17.30;;;13.40;;
50555;SDS011;36508;52.512;13.450;2023-03-01T08:26:54;19.97;;;14.33;;
50555;SDS011;36508;52.512;13.450;2023-03-01T08:29:21;14.70;;;13.40;;
50555;SDS011;36508;52.512;13.450;2023-03-01T08:31:51;12.67;;;11.10;;
50555;SDS011;36508;52.512;13.450;2023-03-01T08:34:20;16.30;;;14.63;;
50555;SDS011;36508;52.512;13.450;2023-03-01T08:36:46;14.10;;;12.60;;
50555;SDS011;36508;52.512;13.450;2023-03-01T08:39:13;15.83;;;12.93;;
50555;SDS011;36508;52.512;13.450;2023-03-01T08:41:43;17.73;;;14.43;;
50555;SDS011;36508;52.512;13.450;2023-03-01T08:44:13;18.10;;;14.80;;
50555;SDS011;36508;52.512;13.450;2023-03-01T08:46:42;14.83;;;13.33;;
50555;SDS011;36508;52.512;13.450;2023-03-01T08:49:14;16.40;;;14.57;;
50555;SDS011;36508;52.512;13.450;2023-03-01T08:51:42;20.57;;;15.10;;
50555;SDS011;36508;52.512;13.450;2023-03-01T08:54:26;32.97;;;24.47;;
50555;SDS011;36508;52.512;13.450;2023-03-01T08:57:00;18.73;;;13.97;;
50555;SDS011;36508;52.512;13.450;2023-03-01T08:59:28;20.83;;;18.57;;
50555;SDS011;36508;52.512;13.450;2023-03-01T09:02:02;15.20;;;13.70;;
50555;SDS011;36508;52.512;13.450;2023-03-01T09:04:29;16.57;;;14.80;;
50555;SDS011;36508;52.512;13.450;2023-03-01T09:06:55;22.50;;;13.93;;
50555;SDS011;36508;52.512;13.450;2023-03-01T09:09:21;22.50;;;14.20;;
50555;SDS011;36508;52.512;13.450;2023-03-01T09:11:46;17.07;;;12.80;;
50555;SDS011;36508;52.512;13.450;2023-03-01T09:14:15;15.57;;;13.10;;
50555;SDS011;36508;52.512;13.450;2023-03-01T09:16:41;18.77;;;14.83;;
50555;SDS011;36508;52.512;13.450;2023-03-01T09:19:11;12.30;;;11.17;;
50555;SDS011;36508;52.512;13.450;2023-03-01T09:21:43;12.73;;;9.80;;
50555;SDS011;36508;52.512;13.450;2023-03-01T09:24:22;13.77;;;11.67;;
50555;SDS011;36508;52.512;13.450;2023-03-01T09:26:49;14.80;;;11.23;;
50555;SDS011;36508;52.512;13.450;2023-03-01T09:29:17;9.73;;;8.73;;
50555;SDS011;36508;52.512;13.450;2023-03-01T09:31:43;9.40;;;7.73;;
50555;SDS011;36508;52.512;13.450;2023-03-01T09:34:10;10.50;;;7.80;;
50555;SDS011;36508;52.512;13.450;2023-03-01T09:36:36;10.20;;;8.30;;
50555;SDS011;36508;52.512;13.450;2023-03-01T09:39:02;8.67;;;6.93;;
50555;SDS011;36508;52.512;13.450;2023-03-01T09:44:34;8.83;;;7.27;;
50555;SDS011;36508;52.512;13.450;2023-03-01T09:47:04;10.60;;;6.50;;
50555;SDS011;36508;52.512;13.450;2023-03-01T09:49:31;8.27;;;6.10;;
50555;SDS011;36508;52.512;13.450;2023-03-01T09:52:03;7.03;;;6.00;;
50555;SDS011;36508;52.512;13.450;2023-03-01T09:54:52;8.30;;;7.60;;
50555;SDS011;36508;52.512;13.450;2023-03-01T09:57:33;14.07;;;12.47;;
50555;SDS011;36508;52.512;13.450;2023-03-01T10:03:12;9.57;;;6.77;;
50555;SDS011;36508;52.512;13.450;2023-03-01T10:05:50;10.30;;;6.00;;
50555;SDS011;36508;52.512;13.450;2023-03-01T10:08:28;7.57;;;6.80;;
50555;SDS011;36508;52.512;13.450;2023-03-01T10:11:04;7.50;;;6.80;;
50555;SDS011;36508;52.512;13.450;2023-03-01T10:13:50;6.30;;;5.80;;
50555;SDS011;36508;52.512;13.450;2023-03-01T10:19:03;9.37;;;5.43;;
50555;SDS011;36508;52.512;13.450;2023-03-01T10:21:31;9.67;;;6.60;;
50555;SDS011;36508;52.512;13.450;2023-03-01T10:24:13;6.47;;;5.83;;
50555;SDS011;36508;52.512;13.450;2023-03-01T10:26:47;6.47;;;5.80;;
50555;SDS011;36508;52.512;13.450;2023-03-01T10:29:19;8.70;;;6.80;;
50555;SDS011;36508;52.512;13.450;2023-03-01T10:31:55;15.13;;;7.80;;
50555;SDS011;36508;52.512;13.450;2023-03-01T10:34:31;6.20;;;5.70;;
50555;SDS011;36508;52.512;13.450;2023-03-01T10:37:21;7.30;;;6.10;;
50555;SDS011;36508;52.512;13.450;2023-03-01T10:40:09;7.10;;;6.37;;
50555;SDS011;36508;52.512;13.450;2023-03-01T10:42:37;6.40;;;5.60;;
50555;SDS011;36508;52.512;13.450;2023-03-01T10:45:15;7.80;;;5.30;;
50555;SDS011;36508;52.512;13.450;2023-03-01T10:50:48;6.17;;;5.40;;
50555;SDS011;36508;52.512;13.450;2023-03-01T10:56:11;6.20;;;5.80;;
50555;SDS011;36508;52.512;13.450;2023-03-01T10:58:40;5.50;;;4.87;;
50555;SDS011;36508;52.512;13.450;2023-03-01T11:04:02;4.80;;;4.50;;
50555;SDS011;36508;52.512;13.450;2023-03-01T11:06:32;3.80;;;3.50;;
50555;SDS011;36508;52.512;13.450;2023-03-01T11:11:44;6.57;;;3.77;;
50555;SDS011;36508;52.512;13.450;2023-03-01T11:14:15;4.50;;;4.20;;
50555;SDS011;36508;52.512;13.450;2023-03-01T11:16:44;6.20;;;5.10;;
50555;SDS011;36508;52.512;13.450;2023-03-01T11:21:37;4.17;;;3.87;;
50555;SDS011;36508;52.512;13.450;2023-03-01T11:24:13;3.70;;;3.13;;
50555;SDS011;36508;52.512;13.450;2023-03-01T11:26:43;5.53;;;4.73;;
50555;SDS011;36508;52.512;13.450;2023-03-01T11:29:25;4.93;;;4.33;;
50555;SDS011;36508;52.512;13.450;2023-03-01T11:32:00;2.60;;;2.40;;
50555;SDS011;36508;52.512;13.450;2023-03-01T11:34:36;4.53;;;4.13;;
50555;SDS011;36508;52.512;13.450;2023-03-01T11:40:25;4.67;;;4.30;;
50555;SDS011;36508;52.512;13.450;2023-03-01T11:43:06;4.60;;;3.40;;
50555;SDS011;36508;52.512;13.450;2023-03-01T11:48:49;5.07;;;4.57;;
50555;SDS011;36508;52.512;13.450;2023-03-01T11:56:46;3.03;;;2.87;;
50555;SDS011;36508;52.512;13.450;2023-03-01T12:08:41;3.30;;;2.67;;
50555;SDS011;36508;52.512;13.450;2023-03-01T12:16:40;3.07;;;2.83;;
50555;SDS011;36508;52.512;13.450;2023-03-01T12:19:17;8.03;;;7.30;;
50555;SDS011;36508;52.512;13.450;2023-03-01T12:21:55;5.80;;;3.00;;
50555;SDS011;36508;52.512;13.450;2023-03-01T12:43:17;4.77;;;3.50;;
50555;SDS011;36508;52.512;13.450;2023-03-01T12:51:14;3.57;;;3.37;;
50555;SDS011;36508;52.512;13.450;2023-03-01T12:53:47;3.30;;;2.73;;
50555;SDS011;36508;52.512;13.450;2023-03-01T12:56:21;3.17;;;2.50;;
50555;SDS011;36508;52.512;13.450;2023-03-01T13:05:00;3.40;;;3.03;;
50555;SDS011;36508;52.512;13.450;2023-03-01T13:12:51;3.47;;;3.23;;
50555;SDS011;36508;52.512;13.450;2023-03-01T13:15:32;4.93;;;3.50;;
50555;SDS011;36508;52.512;13.450;2023-03-01T13:18:00;3.50;;;3.17;;
50555;SDS011;36508;52.512;13.450;2023-03-01T13:30:57;4.00;;;3.73;;
50555;SDS011;36508;52.512;13.450;2023-03-01T13:35:56;10.43;;;4.33;;
50555;SDS011;36508;52.512;13.450;2023-03-01T13:49:43;4.93;;;4.60;;
50555;SDS011;36508;52.512;13.450;2023-03-01T13:52:38;4.90;;;4.50;;
50555;SDS011;36508;52.512;13.450;2023-03-01T13:55:24;5.47;;;4.90;;
50555;SDS011;36508;52.512;13.450;2023-03-01T13:58:02;4.50;;;4.20;;
50555;SDS011;36508;52.512;13.450;2023-03-01T14:00:40;3.70;;;3.50;;
50555;SDS011;36508;52.512;13.450;2023-03-01T14:03:14;5.80;;;3.87;;
50555;SDS011;36508;52.512;13.450;2023-03-01T14:05:43;4.57;;;4.17;;
50555;SDS011;36508;52.512;13.450;2023-03-01T14:08:27;4.43;;;4.03;;
50555;SDS011;36508;52.512;13.450;2023-03-01T14:14:06;6.80;;;5.83;;
50555;SDS011;36508;52.512;13.450;2023-03-01T14:19:29;5.10;;;4.57;;
50555;SDS011;36508;52.512;13.450;2023-03-01T14:24:55;3.87;;;3.57;;
50555;SDS011;36508;52.512;13.450;2023-03-01T14:27:25;3.00;;;2.70;;
50555;SDS011;36508;52.512;13.450;2023-03-01T14:29:54;2.77;;;2.57;;
50555;SDS011;36508;52.512;13.450;2023-03-01T14:32:22;17.07;;;5.90;;
50555;SDS011;36508;52.512;13.450;2023-03-01T14:34:51;3.30;;;2.97;;
50555;SDS011;36508;52.512;13.450;2023-03-01T14:37:18;5.07;;;3.67;;
50555;SDS011;36508;52.512;13.450;2023-03-01T14:39:46;3.70;;;3.30;;
50555;SDS011;36508;52.512;13.450;2023-03-01T14:42:12;3.90;;;3.60;;
50555;SDS011;36508;52.512;13.450;2023-03-01T14:44:40;3.67;;;3.37;;
50555;SDS011;36508;52.512;13.450;2023-03-01T14:47:15;4.53;;;4.13;;
50555;SDS011;36508;52.512;13.450;2023-03-01T14:49:49;4.13;;;3.60;;
50555;SDS011;36508;52.512;13.450;2023-03-01T14:52:22;5.90;;;5.30;;
50555;SDS011;36508;52.512;13.450;2023-03-01T14:54:54;7.80;;;5.00;;
50555;SDS011;36508;52.512;13.450;2023-03-01T14:57:21;4.10;;;3.70;;
50555;SDS011;36508;52.512;13.450;2023-03-01T14:59:50;3.30;;;3.20;;
50555;SDS011;36508;52.512;13.450;2023-03-01T15:02:20;4.90;;;4.43;;
50555;SDS011;36508;52.512;13.450;2023-03-01T15:04:54;3.80;;;3.50;;
50555;SDS011;36508;52.512;13.450;2023-03-01T15:07:26;3.23;;;3.03;;
50555;SDS011;36508;52.512;13.450;2023-03-01T15:09:56;6.90;;;4.97;;
50555;SDS011;36508;52.512;13.450;2023-03-01T15:15:18;4.30;;;4.00;;
50555;SDS011;36508;52.512;13.450;2023-03-01T15:17:52;4.93;;;4.20;;
50555;SDS011;36508;52.512;13.450;2023-03-01T15:20:23;4.03;;;3.63;;
50555;SDS011;36508;52.512;13.450;2023-03-01T15:22:51;3.90;;;3.40;;
50555;SDS011;36508;52.512;13.450;2023-03-01T15:25:18;3.70;;;3.40;;
50555;SDS011;36508;52.512;13.450;2023-03-01T15:27:46;3.93;;;3.57;;
50555;SDS011;36508;52.512;13.450;2023-03-01T15:30:17;3.60;;;3.37;;
50555;SDS011;36508;52.512;13.450;2023-03-01T15:32:44;7.33;;;6.40;;
50555;SDS011;36508;52.512;13.450;2023-03-01T15:41:05;5.00;;;4.50;;
50555;SDS011;36508;52.512;13.450;2023-03-01T15:43:47;9.40;;;5.67;;
50555;SDS011;36508;52.512;13.450;2023-03-01T15:46:20;5.53;;;4.80;;
50555;SDS011;36508;52.512;13.450;2023-03-01T15:48:48;3.90;;;3.60;;
50555;SDS011;36508;52.512;13.450;2023-03-01T15:51:20;6.13;;;5.13;;
50555;SDS011;36508;52.512;13.450;2023-03-01T15:53:53;7.77;;;4.33;;
50555;SDS011;36508;52.512;13.450;2023-03-01T15:56:19;5.83;;;4.67;;
50555;SDS011;36508;52.512;13.450;2023-03-01T15:58:44;5.00;;;4.37;;
50555;SDS011;36508;52.512;13.450;2023-03-01T16:01:14;4.60;;;3.80;;
50555;SDS011;36508;52.512;13.450;2023-03-01T16:03:42;4.40;;;2.97;;
50555;SDS011;36508;52.512;13.450;2023-03-01T16:06:09;5.37;;;4.87;;
50555;SDS011;36508;52.512;13.450;2023-03-01T16:08:36;4.60;;;4.23;;
50555;SDS011;36508;52.512;13.450;2023-03-01T16:11:04;4.87;;;4.07;;
50555;SDS011;36508;52.512;13.450;2023-03-01T16:13:34;6.03;;;5.53;;
50555;SDS011;36508;52.512;13.450;2023-03-01T16:16:01;7.47;;;6.77;;
50555;SDS011;36508;52.512;13.450;2023-03-01T16:18:27;8.60;;;5.63;;
50555;SDS011;36508;52.512;13.450;2023-03-01T16:20:52;6.87;;;6.17;;
50555;SDS011;36508;52.512;13.450;2023-03-01T16:23:20;10.63;;;4.47;;
50555;SDS011;36508;52.512;13.450;2023-03-01T16:25:50;10.00;;;6.10;;
50555;SDS011;36508;52.512;13.450;2023-03-01T16:28:16;9.90;;;5.80;;
50555;SDS011;36508;52.512;13.450;2023-03-01T16:30:45;10.43;;;4.60;;
50555;SDS011;36508;52.512;13.450;2023-03-01T16:33:16;10.30;;;6.90;;
50555;SDS011;36508;52.512;13.450;2023-03-01T16:35:42;6.93;;;5.20;;
50555;SDS011;36508;52.512;13.450;2023-03-01T16:38:09;5.10;;;4.70;;
50555;SDS011;36508;52.512;13.450;2023-03-01T16:40:35;5.63;;;5.13;;
50555;SDS011;36508;52.512;13.450;2023-03-01T16:43:01;5.93;;;5.37;;
50555;SDS011;36508;52.512;13.450;2023-03-01T16:45:28;10.83;;;6.40;;
50555;SDS011;36508;52.512;13.450;2023-03-01T16:48:00;5.50;;;5.00;;
50555;SDS011;36508;52.512;13.450;2023-03-01T16:50:26;5.07;;;4.43;;
50555;SDS011;36508;52.512;13.450;2023-03-01T16:52:52;5.43;;;4.90;;
50555;SDS011;36508;52.512;13.450;2023-03-01T16:55:21;7.97;;;3.70;;
50555;SDS011;36508;52.512;13.450;2023-03-01T16:57:48;6.57;;;3.90;;